Time;durP1;ratioP1;P1;durP2;ratioP2;P2;SDS_P1;SDS_P2;PMS_P1;PMS_P2;Temp;Humidity;BMP_temperature;BMP_pressure;BME280_temperature;BME280_humidity;BME280_pressure;Samples;Min_cycle;Max_cycle;Signal;HPM_P1;HPM_P2
2022/05/05 00:00:06;;;;;;;11.40;9.00;;;9.50;99.90;;;;;;5037169;28;20037;-60
2022/05/05 00:02:32;;;;;;;12.73;8.82;;;9.50;99.90;;;;;;5035715;28;20032;-61
2022/05/05 00:04:58;;;;;;;14.00;8.85;;;9.50;99.90;;;;;;5033948;28;20064;-61
2022/05/05 00:07:24;;;;;;;11.85;8.27;;;9.60;99.90;;;;;;5039225;28;20053;-62
2022/05/05 00:09:49;;;;;;;10.73;8.02;;;9.60;99.90;;;;;;5037050;28;20465;-60
2022/05/05 00:14:59;;;;;;;9.93;7.32;;;9.90;99.90;;;;;;5037088;28;20027;-60
2022/05/05 00:17:26;;;;;;;9.60;7.90;;;9.80;99.90;;;;;;5033224;28;20112;-61
2022/05/05 00:19:52;;;;;;;10.07;7.80;;;9.70;99.90;;;;;;5034618;28;20040;-61
2022/05/05 00:22:17;;;;;;;11.65;7.78;;;9.60;99.90;;;;;;5037451;28;20030;-60
2022/05/05 00:24:43;;;;;;;10.02;7.80;;;9.50;99.90;;;;;;5036749;28;20055;-61
2022/05/05 00:27:09;;;;;;;9.63;7.45;;;9.60;99.90;;;;;;5036723;28;20029;-60
2022/05/05 00:29:35;;;;;;;8.48;7.68;;;9.60;99.90;;;;;;5035708;28;20021;-60
2022/05/05 00:32:01;;;;;;;9.73;7.50;;;9.50;99.90;;;;;;5033068;28;20029;-60
2022/05/05 00:34:26;;;;;;;10.15;7.25;;;9.50;99.90;;;;;;5039136;28;20163;-60
2022/05/05 00:36:52;;;;;;;10.05;7.60;;;9.50;99.90;;;;;;5036367;28;20439;-59
2022/05/05 00:39:18;;;;;;;11.00;7.38;;;9.50;99.90;;;;;;5036463;28;20045;-60
2022/05/05 00:41:45;;;;;;;11.68;7.70;;;9.20;99.90;;;;;;5036480;28;20049;-60
2022/05/05 00:44:12;;;;;;;8.43;7.50;;;9.20;99.90;;;;;;5032024;28;20502;-60
2022/05/05 00:46:38;;;;;;;8.70;7.75;;;9.10;99.90;;;;;;5038016;28;20014;-61
2022/05/05 00:49:05;;;;;;;7.95;7.00;;;9.00;99.90;;;;;;5035161;28;20038;-60
2022/05/05 00:51:31;;;;;;;8.95;7.57;;;8.80;99.90;;;;;;5036067;28;20041;-60
2022/05/05 00:53:57;;;;;;;7.95;7.03;;;9.00;99.90;;;;;;5036226;28;20036;-60
2022/05/05 00:56:24;;;;;;;7.88;7.10;;;8.80;99.90;;;;;;5032820;28;20025;-60
2022/05/05 00:58:52;;;;;;;10.52;8.25;;;8.80;99.90;;;;;;5033984;28;20038;-61
2022/05/05 01:01:19;;;;;;;9.20;8.18;;;8.80;99.90;;;;;;5037946;28;20013;-61
2022/05/05 01:03:45;;;;;;;9.30;7.85;;;8.70;99.90;;;;;;5036151;28;20429;-60
2022/05/05 01:06:13;;;;;;;7.43;6.68;;;8.70;99.90;;;;;;5036416;28;20057;-60
2022/05/05 01:08:39;;;;;;;9.32;7.72;;;8.70;99.90;;;;;;5035814;28;20017;-60
2022/05/05 01:11:05;;;;;;;23.40;13.98;;;8.60;99.90;;;;;;5031810;28;22626;-60
2022/05/05 01:13:31;;;;;;;15.93;10.27;;;8.60;99.90;;;;;;5037681;28;20091;-60
2022/05/05 01:15:59;;;;;;;35.08;19.33;;;8.50;99.90;;;;;;5035951;28;20544;-60
2022/05/05 01:18:25;;;;;;;12.90;8.70;;;8.50;99.90;;;;;;5036184;28;20091;-60
2022/05/05 01:20:53;;;;;;;29.42;17.83;;;8.40;99.90;;;;;;5035821;28;20405;-61
2022/05/05 01:23:20;;;;;;;55.90;28.85;;;8.40;99.90;;;;;;5032698;28;20076;-62
2022/05/05 01:28:32;;;;;;;25.35;15.98;;;8.70;99.90;;;;;;5036840;28;20071;-61
2022/05/05 01:30:58;;;;;;;33.20;19.17;;;8.80;99.90;;;;;;5035637;28;20439;-60
2022/05/05 01:33:26;;;;;;;31.33;18.95;;;8.70;99.90;;;;;;5035226;28;20060;-61
2022/05/05 01:35:55;;;;;;;39.95;24.73;;;8.60;99.90;;;;;;5034404;28;20070;-61
2022/05/05 01:38:23;;;;;;;54.92;31.35;;;8.40;99.90;;;;;;5032512;28;20045;-62
2022/05/05 01:40:48;;;;;;;51.05;30.67;;;8.40;99.90;;;;;;5034117;28;20036;-61
2022/05/05 01:43:16;;;;;;;90.95;53.50;;;8.30;99.90;;;;;;5036702;28;20034;-61
2022/05/05 01:45:43;;;;;;;128.63;74.80;;;8.40;99.90;;;;;;5035251;28;20115;-61
2022/05/05 01:48:10;;;;;;;106.50;62.42;;;8.40;99.90;;;;;;5035645;28;20025;-60
2022/05/05 01:50:37;;;;;;;272.27;154.93;;;8.20;99.90;;;;;;5034571;28;20052;-59
2022/05/05 01:53:03;;;;;;;105.30;60.13;;;8.30;99.90;;;;;;5031428;28;20028;-60
2022/05/05 01:55:33;;;;;;;150.07;81.40;;;8.40;99.90;;;;;;5037012;28;20029;-60
2022/05/05 01:58:00;;;;;;;229.93;131.63;;;8.30;99.90;;;;;;5034649;28;20079;-60
2022/05/05 02:00:27;;;;;;;43.72;26.90;;;8.40;99.90;;;;;;5034519;28;20053;-61
2022/05/05 02:02:53;;;;;;;99.70;58.13;;;8.40;99.90;;;;;;5033929;28;20028;-61
2022/05/05 02:05:19;;;;;;;48.67;31.23;;;8.40;99.90;;;;;;5032096;28;20036;-61
2022/05/05 02:07:46;;;;;;;53.75;32.00;;;8.30;99.90;;;;;;5034793;28;20104;-61
2022/05/05 02:10:14;;;;;;;53.33;32.30;;;8.10;99.90;;;;;;5035741;28;20076;-61
2022/05/05 02:12:41;;;;;;;147.68;89.78;;;8.10;99.90;;;;;;5034826;28;20049;-61
2022/05/05 02:15:08;;;;;;;106.53;61.15;;;7.90;99.90;;;;;;5033676;28;20025;-60
2022/05/05 02:17:35;;;;;;;133.23;76.63;;;8.00;99.90;;;;;;5033812;28;20502;-59
2022/05/05 02:20:02;;;;;;;168.65;103.07;;;8.00;99.90;;;;;;5031358;28;20049;-61
2022/05/05 02:22:28;;;;;;;101.50;63.53;;;8.10;99.90;;;;;;5036716;28;20073;-60
2022/05/05 02:24:54;;;;;;;38.53;23.17;;;7.90;99.90;;;;;;5034678;28;20041;-60
2022/05/05 02:27:19;;;;;;;28.88;19.60;;;7.70;99.90;;;;;;5034266;28;20025;-61
2022/05/05 02:29:46;;;;;;;122.30;85.30;;;7.70;99.90;;;;;;5034654;28;20100;-60
2022/05/05 02:32:12;;;;;;;61.78;44.75;;;7.70;99.90;;;;;;5030610;28;20044;-61
2022/05/05 02:34:38;;;;;;;52.05;38.80;;;7.80;99.90;;;;;;5036157;28;20029;-61
2022/05/05 02:39:49;;;;;;;46.10;34.50;;;7.70;99.90;;;;;;5034434;28;20084;-60
2022/05/05 02:42:17;;;;;;;53.67;39.92;;;7.70;99.90;;;;;;5034151;28;20486;-61
2022/05/05 02:44:43;;;;;;;51.83;42.13;;;7.60;99.90;;;;;;5034435;28;20033;-61
2022/05/05 02:47:08;;;;;;;46.38;36.95;;;7.50;99.90;;;;;;5030134;28;20557;-60
2022/05/05 02:49:35;;;;;;;45.53;35.15;;;7.50;99.90;;;;;;5036333;28;20068;-60
2022/05/05 02:52:05;;;;;;;55.47;40.65;;;7.40;99.90;;;;;;5034195;28;20036;-59
2022/05/05 02:54:51;;;;;;;58.28;43.60;;;7.40;99.90;;;;;;5033279;28;20036;-61
2022/05/05 02:57:23;;;;;;;24.25;18.30;;;7.40;99.90;;;;;;5033709;28;20029;-60
2022/05/05 02:59:53;;;;;;;15.52;13.45;;;7.30;99.90;;;;;;5034473;28;20041;-61
2022/05/05 03:02:20;;;;;;;15.13;12.68;;;7.30;99.90;;;;;;5031209;28;20026;-60
2022/05/05 03:04:46;;;;;;;17.80;14.90;;;7.30;99.90;;;;;;5033887;28;20409;-61
2022/05/05 03:07:12;;;;;;;16.70;15.05;;;7.50;99.90;;;;;;5035145;28;20029;-61
2022/05/05 03:09:39;;;;;;;17.35;14.02;;;7.60;99.90;;;;;;5033883;28;20044;-60
2022/05/05 03:12:06;;;;;;;14.93;13.27;;;7.40;99.90;;;;;;5037443;28;20026;-60
2022/05/05 03:14:31;;;;;;;16.38;14.15;;;7.30;99.90;;;;;;5037320;28;20103;-61
2022/05/05 03:16:57;;;;;;;17.98;15.80;;;7.30;99.90;;;;;;5035080;28;20125;-60
2022/05/05 03:19:23;;;;;;;18.80;15.63;;;7.20;99.90;;;;;;5039743;28;20506;-61
2022/05/05 03:21:49;;;;;;;16.25;14.20;;;7.20;99.90;;;;;;5038025;28;20032;-60
2022/05/05 03:24:14;;;;;;;18.63;16.73;;;7.10;99.90;;;;;;5037436;28;20524;-62
2022/05/05 03:26:40;;;;;;;22.27;17.70;;;7.30;99.90;;;;;;5037851;28;20025;-59
2022/05/05 03:29:06;;;;;;;17.80;15.88;;;7.40;99.90;;;;;;5033627;28;20041;-60
2022/05/05 03:31:32;;;;;;;23.92;19.63;;;7.30;99.90;;;;;;5039679;28;20029;-60
2022/05/05 03:33:58;;;;;;;34.25;26.17;;;7.10;99.90;;;;;;5036286;28;20029;-60
2022/05/05 03:36:24;;;;;;;50.50;33.10;;;7.10;99.90;;;;;;5037447;28;20542;-60
2022/05/05 03:38:50;;;;;;;29.30;25.10;;;7.20;99.90;;;;;;5037823;28;20025;-60
2022/05/05 03:41:16;;;;;;;29.85;25.15;;;7.30;99.90;;;;;;5034564;28;20048;-61
2022/05/05 03:43:42;;;;;;;29.45;25.13;;;7.20;99.90;;;;;;5038424;28;20053;-61
2022/05/05 03:46:08;;;;;;;26.65;23.75;;;7.00;99.90;;;;;;5038170;28;20032;-60
2022/05/05 03:48:33;;;;;;;24.88;22.10;;;6.90;99.90;;;;;;5037631;28;20026;-60
2022/05/05 03:50:59;;;;;;;25.05;22.55;;;7.00;99.90;;;;;;5037202;28;20551;-60
2022/05/05 03:53:25;;;;;;;25.33;21.95;;;7.00;99.90;;;;;;5035024;28;20036;-59
2022/05/05 03:55:51;;;;;;;27.13;22.73;;;7.00;99.90;;;;;;5035402;28;20091;-60
2022/05/05 03:58:17;;;;;;;28.48;22.98;;;7.00;99.90;;;;;;5039309;28;20033;-65
2022/05/05 04:00:43;;;;;;;22.15;19.90;;;6.80;99.90;;;;;;5037593;28;20030;-61
2022/05/05 04:05:53;;;;;;;21.55;19.35;;;6.80;99.90;;;;;;5037362;28;20036;-60
2022/05/05 04:08:18;;;;;;;108.20;84.43;;;6.80;99.90;;;;;;5033879;28;20029;-60
2022/05/05 04:10:44;;;;;;;48.55;39.42;;;6.90;99.90;;;;;;5037332;28;20034;-61
2022/05/05 04:13:10;;;;;;;31.23;25.35;;;6.80;99.90;;;;;;5037960;28;20017;-61
2022/05/05 04:15:36;;;;;;;28.63;23.88;;;;;;;;;;5034625;28;20486;-60
2022/05/05 04:18:02;;;;;;;29.38;23.35;;;6.60;99.90;;;;;;5037062;28;20460;-60
2022/05/05 04:20:28;;;;;;;19.55;17.20;;;6.60;99.90;;;;;;5035287;28;20112;-61
2022/05/05 04:22:55;;;;;;;21.27;16.27;;;6.60;99.90;;;;;;5033061;28;20117;-61
2022/05/05 04:25:21;;;;;;;15.68;13.85;;;6.50;99.90;;;;;;5038827;28;20548;-62
2022/05/05 04:27:47;;;;;;;17.63;13.82;;;6.40;99.90;;;;;;5037122;28;20117;-61
2022/05/05 04:30:16;;;;;;;15.27;12.60;;;6.40;99.90;;;;;;5036879;28;20568;-61
2022/05/05 04:32:45;;;;;;;15.55;14.02;;;6.60;99.90;;;;;;5036693;28;20112;-60
2022/05/05 04:35:11;;;;;;;23.60;18.20;;;6.40;99.90;;;;;;5032707;28;20113;-61
2022/05/05 04:37:41;;;;;;;22.83;15.13;;;6.60;99.90;;;;;;5037535;28;20050;-61
2022/05/05 04:40:08;;;;;;;23.25;14.73;;;6.60;99.90;;;;;;5037135;28;20131;-60
2022/05/05 04:42:34;;;;;;;19.52;13.50;;;6.50;99.90;;;;;;5036331;28;20025;-61
2022/05/05 04:45:00;;;;;;;16.83;13.57;;;6.40;99.90;;;;;;5036444;28;20053;-60
2022/05/05 04:47:26;;;;;;;25.02;17.88;;;6.40;99.90;;;;;;5034986;28;20041;-60
2022/05/05 04:49:55;;;;;;;24.55;17.95;;;6.60;99.90;;;;;;5034577;28;20106;-61
2022/05/05 04:52:21;;;;;;;19.75;17.58;;;6.70;99.90;;;;;;5036445;28;20440;-61
2022/05/05 04:54:46;;;;;;;22.55;16.30;;;6.70;99.90;;;;;;5036213;28;20064;-61
2022/05/05 04:57:12;;;;;;;18.95;16.92;;;6.50;99.90;;;;;;5036203;28;20121;-60
2022/05/05 04:59:38;;;;;;;22.05;16.98;;;6.50;99.90;;;;;;5035829;28;20059;-60
2022/05/05 05:02:04;;;;;;;19.40;17.13;;;6.40;99.90;;;;;;5032539;28;20026;-60
2022/05/05 05:04:30;;;;;;;19.63;16.83;;;6.40;99.90;;;;;;5037914;28;20022;-60
2022/05/05 05:06:56;;;;;;;19.75;15.70;;;6.50;99.90;;;;;;5035659;28;20116;-60
2022/05/05 05:09:22;;;;;;;20.38;17.08;;;6.40;99.90;;;;;;5035851;28;20025;-61
2022/05/05 05:11:47;;;;;;;20.15;16.70;;;6.60;99.90;;;;;;5036226;28;20032;-61
2022/05/05 05:14:13;;;;;;;19.38;17.27;;;6.70;99.90;;;;;;5032367;28;20083;-60
2022/05/05 05:16:39;;;;;;;17.95;15.15;;;6.80;99.90;;;;;;5036750;28;20029;-61
2022/05/05 05:19:05;;;;;;;17.42;15.50;;;6.80;99.90;;;;;;5036195;28;20064;-60
2022/05/05 05:21:31;;;;;;;17.33;15.50;;;6.80;99.90;;;;;;5035687;28;20025;-60
2022/05/05 05:23:57;;;;;;;16.02;14.40;;;7.00;99.90;;;;;;5035750;28;20044;-61
2022/05/05 05:26:23;;;;;;;15.10;13.52;;;7.00;99.90;;;;;;5033557;28;20021;-61
2022/05/05 05:28:49;;;;;;;16.48;14.77;;;7.10;99.90;;;;;;5034558;28;20041;-59
2022/05/05 05:31:16;;;;;;;14.93;12.98;;;7.30;99.90;;;;;;5035077;28;20025;-60
2022/05/05 05:33:42;;;;;;;14.05;12.65;;;7.40;99.90;;;;;;5035356;28;20057;-61
2022/05/05 05:36:08;;;;;;;14.32;12.80;;;7.60;99.90;;;;;;5035541;28;20112;-60
2022/05/05 05:38:34;;;;;;;14.77;12.98;;;7.80;99.90;;;;;;5034441;28;20052;-61
2022/05/05 05:41:01;;;;;;;14.02;12.52;;;8.00;99.90;;;;;;5031753;28;20029;-61
2022/05/05 05:43:26;;;;;;;14.13;12.23;;;8.10;99.90;;;;;;5037239;28;20033;-60
2022/05/05 05:45:52;;;;;;;13.30;11.75;;;8.30;99.90;;;;;;5035456;28;20033;-60
2022/05/05 05:48:18;;;;;;;13.45;11.88;;;8.70;99.90;;;;;;5035283;28;20056;-60
2022/05/05 05:50:44;;;;;;;12.90;11.15;;;9.00;99.90;;;;;;5034903;28;20048;-61
2022/05/05 05:53:10;;;;;;;14.15;11.07;;;9.00;99.90;;;;;;5031138;28;20038;-61
2022/05/05 05:55:36;;;;;;;15.23;10.65;;;9.10;99.90;;;;;;5037297;28;20083;-61
2022/05/05 05:58:02;;;;;;;15.70;10.77;;;9.20;99.90;;;;;;5035014;28;20429;-61
2022/05/05 06:00:28;;;;;;;16.58;10.60;;;9.20;99.90;;;;;;5035091;28;20215;-61
2022/05/05 06:05:38;;;;;;;;;;;11.30;99.90;;;;;;5035290;28;20581;-60
2022/05/05 06:08:05;;;;;;;11.88;8.90;;;12.30;99.90;;;;;;5030451;28;19953;-61
2022/05/05 06:10:33;;;;;;;13.50;9.40;;;13.30;99.90;;;;;;5036426;28;20104;-60
2022/05/05 06:12:59;;;;;;;10.50;8.95;;;13.90;99.90;;;;;;5034705;28;20037;-60
2022/05/05 06:15:26;;;;;;;10.55;8.95;;;14.00;99.90;;;;;;5030970;28;20025;-61
2022/05/05 06:17:52;;;;;;;11.10;8.77;;;14.40;99.90;;;;;;5044086;28;20352;-61
2022/05/05 06:20:18;;;;;;;10.52;9.50;;;15.10;99.90;;;;;;5032140;28;20414;-62
2022/05/05 06:22:44;;;;;;;10.43;9.38;;;15.90;99.90;;;;;;5033419;28;20042;-61
2022/05/05 06:25:11;;;;;;;10.07;9.18;;;16.30;99.90;;;;;;5035625;28;20033;-61
2022/05/05 06:27:38;;;;;;;10.48;9.38;;;16.60;99.90;;;;;;5034645;28;20033;-60
2022/05/05 06:30:05;;;;;;;9.68;8.77;;;17.10;99.90;;;;;;5034467;28;20022;-61
2022/05/05 06:32:30;;;;;;;9.13;8.30;;;18.00;99.90;;;;;;5033096;28;20082;-61
2022/05/05 06:34:56;;;;;;;9.52;8.63;;;18.70;99.90;;;;;;5031439;28;20021;-58
2022/05/05 06:37:25;;;;;;;11.48;8.73;;;18.50;99.90;;;;;;5036409;28;20045;-57
2022/05/05 06:39:51;;;;;;;10.88;9.23;;;17.80;99.90;;;;;;5034351;28;20044;-61
2022/05/05 06:42:18;;;;;;;10.07;8.85;;;17.80;99.90;;;;;;5034246;28;20021;-57
2022/05/05 06:44:44;;;;;;;10.27;9.27;;;18.00;99.90;;;;;;5034162;28;20025;-58
2022/05/05 06:47:11;;;;;;;9.70;8.80;;;18.10;99.90;;;;;;5028555;28;20025;-59
2022/05/05 06:49:36;;;;;;;13.20;10.20;;;18.00;99.90;;;;;;5035843;28;20497;-58
2022/05/05 06:52:03;;;;;;;18.50;10.63;;;18.00;99.90;;;;;;5033845;28;20030;-58
2022/05/05 06:54:29;;;;;;;10.75;8.75;;;18.90;99.90;;;;;;5034012;28;20034;-58
2022/05/05 06:56:55;;;;;;;12.32;8.80;;;19.10;99.90;;;;;;5034212;28;20122;-60
2022/05/05 06:59:21;;;;;;;12.00;9.05;;;18.90;99.90;;;;;;5031185;28;20466;-60
2022/05/05 07:01:53;;;;;;;11.07;8.38;;;20.60;99.90;;;;;;5032711;28;20480;-61
2022/05/05 07:07:11;;;;;;;9.00;8.10;;;21.70;99.90;;;;;;5033626;28;20168;-59
2022/05/05 07:12:22;;;;;;;8.80;7.90;;;22.00;99.90;;;;;;5034249;28;20437;-60
2022/05/05 07:14:47;;;;;;;12.23;7.93;;;22.10;99.90;;;;;;5033766;28;20025;-60
2022/05/05 07:17:13;;;;;;;10.00;8.32;;;22.50;99.90;;;;;;5029850;28;20038;-59
2022/05/05 07:19:39;;;;;;;8.57;7.68;;;23.10;99.90;;;;;;5034876;28;20082;-59
2022/05/05 07:22:06;;;;;;;10.73;8.07;;;22.40;99.90;;;;;;5034079;28;20028;-59
2022/05/05 07:24:32;;;;;;;9.07;8.02;;;23.90;99.50;;;;;;5034248;28;20061;-60
2022/05/05 07:26:58;;;;;;;11.02;8.50;;;24.00;98.40;;;;;;5032663;28;20044;-59
2022/05/05 07:29:24;;;;;;;8.45;7.55;;;24.90;97.40;;;;;;5031295;28;20682;-60
2022/05/05 07:31:50;;;;;;;8.88;7.90;;;24.90;97.30;;;;;;5032230;28;20025;-60
2022/05/05 07:34:16;;;;;;;9.45;7.40;;;24.80;96.30;;;;;;5035214;28;20030;-60
2022/05/05 07:36:42;;;;;;;8.82;7.88;;;25.90;96.00;;;;;;5033338;28;20517;-59
2022/05/05 07:39:08;;;;;;;9.18;7.32;;;25.40;95.30;;;;;;5033505;28;20041;-60
2022/05/05 07:41:34;;;;;;;14.80;9.05;;;26.40;94.70;;;;;;5032604;28;20025;-60
2022/05/05 07:44:01;;;;;;;10.25;7.78;;;26.30;94.30;;;;;;5030273;28;20034;-59
2022/05/05 07:46:27;;;;;;;9.23;7.70;;;26.90;93.30;;;;;;5035626;28;20018;-61
2022/05/05 07:48:54;;;;;;;12.00;7.82;;;26.50;93.60;;;;;;5033689;28;20132;-60
2022/05/05 07:51:20;;;;;;;8.57;7.63;;;27.30;92.70;;;;;;5033567;28;20021;-60
2022/05/05 07:56:30;;;;;;;11.30;8.38;;;29.20;88.90;;;;;;5032040;28;20382;-61
2022/05/05 07:58:56;;;;;;;9.23;8.32;;;28.80;89.50;;;;;;5032916;28;20033;-61
2022/05/05 08:01:22;;;;;;;13.02;8.82;;;30.40;85.30;;;;;;5037756;28;20074;-60
2022/05/05 08:03:48;;;;;;;11.45;9.05;;;29.30;84.40;;;;;;5037064;28;20501;-61
2022/05/05 08:06:13;;;;;;;12.82;9.00;;;28.90;84.60;;;;;;5035941;28;20032;-61
2022/05/05 08:08:39;;;;;;;9.85;8.60;;;28.20;84.70;;;;;;5037246;28;20048;-61
2022/05/05 08:11:05;;;;;;;12.52;8.82;;;29.40;84.40;;;;;;5032966;28;20053;-61
2022/05/05 08:13:34;;;;;;;12.32;9.20;;;28.30;83.70;;;;;;5039098;28;20029;-61
2022/05/05 08:16:00;;;;;;;10.65;8.82;;;28.80;83.90;;;;;;5036924;28;20030;-61
2022/05/05 08:18:26;;;;;;;9.27;8.23;;;29.80;81.40;;;;;;5037047;28;20040;-61
2022/05/05 08:20:52;;;;;;;9.38;8.50;;;27.20;83.00;;;;;;5036762;28;20029;-59
2022/05/05 08:23:19;;;;;;;9.48;7.78;;;27.60;85.90;;;;;;5033882;28;20030;-59
2022/05/05 08:28:29;;;;;;;10.40;6.78;;;27.20;82.10;;;;;;5038726;28;20111;-59
2022/05/05 08:30:58;;;;;;;8.57;6.97;;;27.00;83.40;;;;;;5036832;28;20053;-59
2022/05/05 08:33:27;;;;;;;8.15;6.57;;;27.30;80.40;;;;;;5036491;28;20036;-59
2022/05/05 08:35:54;;;;;;;10.07;6.65;;;27.90;81.40;;;;;;5036571;28;20095;-58
2022/05/05 08:38:20;;;;;;;8.40;6.88;;;28.50;79.50;;;;;;5033796;28;20109;-59
2022/05/05 08:40:46;;;;;;;9.88;6.40;;;27.80;79.20;;;;;;5036324;28;20053;-59
2022/05/05 08:43:12;;;;;;;6.97;5.72;;;29.10;77.00;;;;;;5035832;28;20048;-59
2022/05/05 08:45:38;;;;;;;6.80;6.03;;;27.90;78.00;;;;;;5035062;28;20095;-59
2022/05/05 08:48:08;;;;;;;8.05;6.10;;;28.70;76.50;;;;;;5036190;28;20494;-59
2022/05/05 08:50:37;;;;;;;6.18;5.57;;;27.00;78.10;;;;;;5035349;28;20040;-59
2022/05/05 08:53:04;;;;;;;5.53;5.00;;;25.60;79.90;;;;;;5032698;28;20033;-58
2022/05/05 08:55:31;;;;;;;6.70;5.60;;;25.60;81.40;;;;;;5038071;28;20034;-59
2022/05/05 08:57:59;;;;;;;7.03;6.32;;;25.80;80.10;;;;;;5035810;28;20112;-59
2022/05/05 09:00:27;;;;;;;6.72;5.82;;;23.20;84.30;;;;;;5036531;28;20034;-59
2022/05/05 09:02:59;;;;;;;6.38;5.78;;;25.90;84.70;;;;;;5035987;28;20032;-58
2022/05/05 09:05:44;;;;;;;5.00;4.50;;;28.10;78.10;;;;;;5033763;28;20029;-59
2022/05/05 09:08:13;;;;;;;5.18;3.28;;;27.20;76.60;;;;;;5015796;28;20288;-59
2022/05/05 09:10:44;;;;;;;4.03;3.30;;;26.60;77.70;;;;;;5045913;28;20363;-58
2022/05/05 09:13:10;;;;;;;5.28;3.72;;;28.00;73.20;;;;;;5036114;28;20036;-59
2022/05/05 09:15:40;;;;;;;5.68;3.80;;;27.10;73.10;;;;;;5035652;28;20021;-59
2022/05/05 09:18:21;;;;;;;6.35;4.00;;;27.20;73.90;;;;;;5035787;28;20026;-58
2022/05/05 09:20:48;;;;;;;6.35;3.70;;;26.70;72.80;;;;;;5035299;28;20045;-59
2022/05/05 09:26:37;;;;;;;5.60;3.72;;;27.10;72.50;;;;;;4998250;28;20025;-59
2022/05/05 09:29:22;;;;;;;5.70;3.70;;;28.30;75.10;;;;;;5026941;28;20434;-58
2022/05/05 09:31:50;;;;;;;5.60;3.35;;;27.50;70.70;;;;;;4994488;28;20461;-59
2022/05/05 09:34:19;;;;;;;3.33;3.00;;;27.10;70.90;;;;;;5024028;28;20086;-59
2022/05/05 09:36:47;;;;;;;4.00;3.42;;;24.00;73.40;;;;;;5021084;28;20063;-59
2022/05/05 09:39:13;;;;;;;7.63;4.45;;;23.80;75.80;;;;;;5004627;28;20049;-61
2022/05/05 09:41:46;;;;;;;5.75;3.65;;;23.60;76.50;;;;;;5021951;28;20088;-60
2022/05/05 09:44:12;;;;;;;6.22;3.60;;;24.70;76.10;;;;;;5010302;28;20646;-61
2022/05/05 09:46:39;;;;;;;7.80;4.40;;;26.80;73.70;;;;;;5026370;28;20029;-61
2022/05/05 09:49:12;;;;;;;6.18;3.88;;;26.00;72.70;;;;;;5014235;28;20060;-60
2022/05/05 09:51:43;;;;;;;9.03;4.13;;;25.80;73.00;;;;;;5014551;28;20041;-61
2022/05/05 09:59:50;;;;;;;3.15;2.80;;;25.20;75.20;;;;;;5035208;28;20087;-61
2022/05/05 10:05:10;;;;;;;4.93;3.10;;;24.40;74.10;;;;;;5014806;28;20037;-60
2022/05/05 10:07:41;;;;;;;3.60;3.10;;;25.70;71.90;;;;;;5036816;28;20437;-61
2022/05/05 10:10:08;;;;;;;5.13;3.20;;;25.90;70.30;;;;;;5035019;28;20055;-59
2022/05/05 10:12:36;;;;;;;4.53;3.58;;;27.10;73.20;;;;;;5035187;28;20026;-61
2022/05/05 10:15:02;;;;;;;5.05;3.40;;;28.00;70.00;;;;;;5034945;28;20408;-61
2022/05/05 10:17:28;;;;;;;5.65;3.15;;;26.00;69.70;;;;;;5032914;28;20105;-61
2022/05/05 10:19:55;;;;;;;5.47;3.70;;;25.60;73.90;;;;;;5031483;28;20049;-61
2022/05/05 10:22:36;;;;;;;3.15;2.83;;;27.70;70.90;;;;;;5036457;28;20120;-61
2022/05/05 10:25:11;;;;;;;4.72;3.58;;;29.00;68.40;;;;;;5034447;28;20037;-60
2022/05/05 10:27:43;;;;;;;4.85;2.90;;;29.30;69.00;;;;;;5034543;28;20030;-61
2022/05/05 10:30:30;;;;;;;5.55;3.65;;;28.20;69.20;;;;;;5034607;28;20029;-61
2022/05/05 10:32:57;;;;;;;4.70;3.00;;;26.50;70.00;;;;;;5034733;28;20025;-61
2022/05/05 10:35:23;;;;;;;6.90;3.42;;;24.20;72.80;;;;;;5031981;28;20029;-61
2022/05/05 10:37:49;;;;;;;7.22;3.70;;;23.80;73.60;;;;;;5032987;28;20049;-61
2022/05/05 10:40:15;;;;;;;5.50;3.28;;;22.40;74.90;;;;;;5035243;28;20049;-60
2022/05/05 10:42:50;;;;;;;3.95;3.22;;;24.00;73.60;;;;;;5033216;28;20053;-61
2022/05/05 10:45:32;;;;;;;4.03;3.13;;;24.80;71.50;;;;;;5034180;28;20018;-61
2022/05/05 10:48:06;;;;;;;7.10;3.38;;;24.10;72.40;;;;;;5034548;28;20025;-61
2022/05/05 10:51:03;;;;;;;4.88;3.67;;;23.30;75.30;;;;;;5032767;28;20039;-60
2022/05/05 10:53:40;;;;;;;4.35;3.10;;;23.50;75.10;;;;;;5018758;28;20045;-61
2022/05/05 10:56:32;;;;;;;3.75;2.80;;;24.50;71.40;;;;;;5030144;28;20118;-61
2022/05/05 10:59:06;;;;;;;3.30;2.88;;;25.10;71.60;;;;;;5043653;28;20033;-60
2022/05/05 11:01:51;;;;;;;;;;;24.70;73.30;;;;;;5036945;28;20045;-61
2022/05/05 11:04:17;;;;;;;4.05;2.55;;;24.40;73.20;;;;;;5035650;28;19909;-60
2022/05/05 11:06:49;;;;;;;3.83;2.20;;;24.90;73.80;;;;;;5033932;28;20409;-60
2022/05/05 11:09:37;;;;;;;3.55;2.40;;;26.40;72.90;;;;;;5034114;28;20033;-60
2022/05/05 11:12:13;;;;;;;4.28;2.50;;;24.60;72.20;;;;;;5033999;28;20038;-60
2022/05/05 11:23:12;;;;;;;3.22;1.90;;;23.30;71.40;;;;;;5044789;28;20033;-60
2022/05/05 11:25:41;;;;;;;3.58;2.10;;;23.80;70.70;;;;;;5035773;28;20040;-60
2022/05/05 11:28:10;;;;;;;3.75;1.90;;;23.60;73.00;;;;;;5034840;28;20037;-60
2022/05/05 11:30:36;;;;;;;2.30;2.10;;;24.00;71.20;;;;;;5033918;28;20026;-60
2022/05/05 11:33:03;;;;;;;2.67;2.47;;;23.70;72.50;;;;;;5037123;28;20033;-60
2022/05/05 11:35:29;;;;;;;5.97;2.40;;;24.80;71.60;;;;;;5035937;28;20036;-60
2022/05/05 11:37:55;;;;;;;3.53;2.47;;;23.80;73.40;;;;;;5034963;28;20049;-60
2022/05/05 11:40:21;;;;;;;5.88;2.45;;;24.60;70.60;;;;;;5039207;28;20040;-60
2022/05/05 11:45:35;;;;;;;3.03;2.38;;;25.10;73.00;;;;;;5037453;28;20071;-61
2022/05/05 11:48:15;;;;;;;4.38;2.25;;;24.40;71.10;;;;;;5037516;28;20032;-60
2022/05/05 11:50:44;;;;;;;3.50;2.20;;;22.90;74.10;;;;;;5037561;28;20086;-60
2022/05/05 11:53:17;;;;;;;3.00;2.10;;;22.70;73.70;;;;;;5017421;28;20026;-61
2022/05/05 11:55:46;;;;;;;3.03;2.40;;;23.80;72.60;;;;;;5047131;28;20025;-60
2022/05/05 12:01:36;;;;;;;2.30;2.00;;;23.50;72.80;;;;;;5038069;28;20022;-60
2022/05/05 12:04:00;;;;;;;2.40;1.80;;;23.90;72.20;;;;;;5037211;28;20569;-60
2022/05/05 12:06:26;;;;;;;3.05;2.20;;;23.40;71.90;;;;;;5036942;28;20116;-60
2022/05/05 12:08:55;;;;;;;2.72;2.05;;;22.50;73.90;;;;;;5037039;28;20037;-61
2022/05/05 12:11:21;;;;;;;2.30;2.10;;;22.20;76.30;;;;;;5034096;28;20025;-60
2022/05/05 12:13:49;;;;;;;1.95;1.85;;;22.30;76.80;;;;;;5037425;28;20047;-61
2022/05/05 12:16:17;;;;;;;2.58;2.10;;;23.10;75.80;;;;;;5038152;28;20029;-61
2022/05/05 12:18:53;;;;;;;2.70;2.10;;;23.20;74.90;;;;;;5036785;28;20029;-61
2022/05/05 12:21:23;;;;;;;2.95;2.42;;;24.00;77.10;;;;;;5036345;28;20498;-60
2022/05/05 12:24:04;;;;;;;3.05;2.40;;;23.20;79.60;;;;;;5037115;28;20074;-61
2022/05/05 12:26:35;;;;;;;4.65;2.40;;;23.00;80.40;;;;;;5035398;28;20498;-60
2022/05/05 12:29:12;;;;;;;4.47;2.60;;;22.60;79.40;;;;;;5033411;28;20506;-60
2022/05/05 12:31:38;;;;;;;4.53;2.97;;;22.70;81.20;;;;;;5046315;28;20112;-61
2022/05/05 12:34:03;;;;;;;6.05;3.17;;;23.10;82.00;;;;;;5036655;28;20104;-60
2022/05/05 12:36:29;;;;;;;5.75;3.10;;;23.80;80.50;;;;;;5036041;28;20544;-60
2022/05/05 12:39:14;;;;;;;3.72;3.40;;;24.20;81.50;;;;;;5035110;28;20059;-60
2022/05/05 12:42:00;;;;;;;5.10;3.30;;;24.80;84.80;;;;;;5035942;28;20044;-61
2022/05/05 12:44:35;;;;;;;3.40;3.08;;;24.80;81.60;;;;;;5020098;28;20076;-61
2022/05/05 12:47:05;;;;;;;3.60;2.88;;;23.30;83.70;;;;;;5033472;28;20040;-61
2022/05/05 12:49:38;;;;;;;7.78;2.95;;;23.80;82.00;;;;;;5038025;28;20061;-61
2022/05/05 12:52:06;;;;;;;4.43;2.95;;;24.30;82.40;;;;;;5036339;28;20079;-61
2022/05/05 13:00:04;;;;;;;3.88;2.90;;;23.80;81.30;;;;;;5036326;28;20048;-61
2022/05/05 13:02:30;;;;;;;3.83;2.92;;;23.60;81.60;;;;;;5034233;28;20041;-62
2022/05/05 13:04:55;;;;;;;5.30;3.10;;;22.30;84.80;;;;;;5033282;28;20025;-61
2022/05/05 13:07:21;;;;;;;4.70;3.08;;;23.60;83.50;;;;;;5038127;28;20368;-61
2022/05/05 13:09:47;;;;;;;3.60;3.00;;;24.10;81.50;;;;;;5036011;28;20083;-61
2022/05/05 13:12:12;;;;;;;3.75;2.75;;;23.80;82.80;;;;;;5035992;28;20032;-60
2022/05/05 13:14:38;;;;;;;3.47;2.90;;;23.70;83.70;;;;;;5035288;28;20033;-61
2022/05/05 13:17:04;;;;;;;3.92;2.97;;;23.60;82.90;;;;;;5032156;28;20022;-61
2022/05/05 13:19:30;;;;;;;3.72;2.90;;;24.00;83.70;;;;;;5036652;28;20045;-60
2022/05/05 13:21:56;;;;;;;5.05;2.97;;;23.90;83.60;;;;;;5035987;28;20033;-61
2022/05/05 13:24:22;;;;;;;4.68;2.92;;;23.80;82.30;;;;;;5035791;28;20112;-60
2022/05/05 13:26:48;;;;;;;4.82;2.63;;;24.10;81.20;;;;;;5035725;28;20116;-60
2022/05/05 13:29:14;;;;;;;4.22;2.53;;;24.40;82.50;;;;;;5031844;28;20033;-61
2022/05/05 13:31:40;;;;;;;4.15;2.70;;;24.80;81.90;;;;;;5037096;28;20025;-61
2022/05/05 13:34:06;;;;;;;4.82;2.67;;;24.40;81.60;;;;;;5034119;28;20498;-60
2022/05/05 13:36:32;;;;;;;3.55;2.53;;;24.80;81.10;;;;;;5035213;28;20108;-61
2022/05/05 13:38:58;;;;;;;4.40;2.45;;;25.00;79.50;;;;;;5035313;28;20026;-61
2022/05/05 13:41:24;;;;;;;6.15;2.88;;;24.80;80.50;;;;;;5033115;28;20033;-61